Wetterdaten: Woche 16.10.17 - 22.10.17 (KW42)
Datum Zeit Temperatur Luftfeuchte Luftdruck Niederschlag Windrichtung Sonnenschein Solar Wind
16.10.2017 00:00 8,4 C 97 % 1025,8 hPa 0,0 l/m N 0,00 h 0 W/m 0,0 km/h (0 Bft)
16.10.2017 01:00 7,7 C 98 % 1025,9 hPa 0,0 l/m N 0,00 h 0 W/m 0,0 km/h (0 Bft)
16.10.2017 02:00 7,1 C 98 % 1026,1 hPa 0,0 l/m N 0,00 h 0 W/m 0,0 km/h (0 Bft)
16.10.2017 03:00 6,9 C 98 % 1025,9 hPa 0,0 l/m N 0,00 h 0 W/m 0,0 km/h (0 Bft)
16.10.2017 04:00 6,7 C 98 % 1025,8 hPa 0,0 l/m N 0,00 h 0 W/m 0,0 km/h (0 Bft)
16.10.2017 05:00 6,5 C 98 % 1025,8 hPa 0,0 l/m N 0,00 h 0 W/m 0,0 km/h (0 Bft)
16.10.2017 06:00 6,1 C 98 % 1025,8 hPa 0,0 l/m N 0,00 h 0 W/m 0,0 km/h (0 Bft)
16.10.2017 07:00 5,9 C 98 % 1025,9 hPa 0,0 l/m N 0,00 h 9 W/m 0,0 km/h (0 Bft)
16.10.2017 08:00 6,3 C 99 % 1026,0 hPa 0,0 l/m N 0,42 h 63 W/m 0,0 km/h (0 Bft)
16.10.2017 09:00 8,2 C 99 % 1026,1 hPa 0,0 l/m N 1,00 h 207 W/m 0,0 km/h (0 Bft)
16.10.2017 10:00 11,8 C 94 % 1026,2 hPa 0,0 l/m N 1,00 h 358 W/m 1,3 km/h (1 Bft)
16.10.2017 11:00 16,4 C 76 % 1026,0 hPa 0,2 l/m S-SW 0,92 h 437 W/m 7,9 km/h (2 Bft)
16.10.2017 12:00 18,9 C 63 % 1025,7 hPa 0,0 l/m S-SW 1,00 h 523 W/m 7,5 km/h (2 Bft)
16.10.2017 13:00 21,2 C 57 % 1025,0 hPa 0,0 l/m N 1,00 h 530 W/m 3,3 km/h (1 Bft)
16.10.2017 14:00 22,2 C 55 % 1024,5 hPa 0,0 l/m N 1,00 h 481 W/m 2,9 km/h (1 Bft)
16.10.2017 15:00 22,9 C 54 % 1024,1 hPa 0,0 l/m S-SW 1,00 h 386 W/m 3,5 km/h (1 Bft)
16.10.2017 16:00 22,6 C 54 % 1023,9 hPa 0,0 l/m N 1,00 h 245 W/m 2,4 km/h (1 Bft)
16.10.2017 17:00 20,2 C 68 % 1023,6 hPa 0,0 l/m N 0,33 h 76 W/m 0,0 km/h (0 Bft)
16.10.2017 18:00 15,9 C 81 % 1023,7 hPa 0,0 l/m N 0,08 h 12 W/m 0,0 km/h (0 Bft)
16.10.2017 19:00 13,4 C 85 % 1024,2 hPa 0,0 l/m N 0,00 h 0 W/m 0,0 km/h (0 Bft)
16.10.2017 20:00 11,8 C 89 % 1024,3 hPa 0,0 l/m N 0,00 h 0 W/m 0,0 km/h (0 Bft)
16.10.2017 21:00 10,8 C 92 % 1024,5 hPa 0,0 l/m N 0,00 h 0 W/m 0,0 km/h (0 Bft)
16.10.2017 22:00 10,1 C 94 % 1024,6 hPa 0,0 l/m N 0,00 h 0 W/m 0,0 km/h (0 Bft)
16.10.2017 23:00 9,3 C 95 % 1024,5 hPa 0,0 l/m N 0,00 h 0 W/m 0,0 km/h (0 Bft)
17.10.2017 00:00 8,5 C 96 % 1024,2 hPa 0,0 l/m N 0,00 h 0 W/m 0,0 km/h (0 Bft)
17.10.2017 01:00 8,0 C 97 % 1024,1 hPa 0,0 l/m N 0,00 h 0 W/m 0,0 km/h (0 Bft)
17.10.2017 02:00 7,4 C 97 % 1024,0 hPa 0,0 l/m N 0,00 h 0 W/m 0,0 km/h (0 Bft)
17.10.2017 03:00 6,7 C 97 % 1023,8 hPa 0,0 l/m N 0,00 h 0 W/m 0,0 km/h (0 Bft)
17.10.2017 04:00 5,7 C 97 % 1023,7 hPa 0,0 l/m N 0,00 h 0 W/m 0,0 km/h (0 Bft)
17.10.2017 05:00 5,2 C 98 % 1023,6 hPa 0,0 l/m N 0,00 h 0 W/m 0,0 km/h (0 Bft)
17.10.2017 06:00 4,7 C 98 % 1023,5 hPa 0,0 l/m N 0,00 h 0 W/m 0,0 km/h (0 Bft)
17.10.2017 07:00 4,5 C 98 % 1023,4 hPa 0,0 l/m N 0,08 h 8 W/m 0,0 km/h (0 Bft)
17.10.2017 08:00 5,3 C 98 % 1023,7 hPa 0,0 l/m N 0,00 h 47 W/m 0,0 km/h (0 Bft)
17.10.2017 09:00 6,6 C 99 % 1023,9 hPa 0,0 l/m N 0,67 h 181 W/m 0,0 km/h (0 Bft)
17.10.2017 10:00 9,9 C 99 % 1023,6 hPa 0,0 l/m N 1,00 h 356 W/m 0,5 km/h (0 Bft)
17.10.2017 11:00 14,5 C 89 % 1023,1 hPa 0,0 l/m S-SW 0,92 h 432 W/m 4,1 km/h (1 Bft)
17.10.2017 12:00 17,5 C 72 % 1022,3 hPa 0,0 l/m S-SW 1,00 h 528 W/m 6,6 km/h (2 Bft)
17.10.2017 13:00 19,5 C 65 % 1021,3 hPa 0,0 l/m S-SW 1,00 h 538 W/m 1,5 km/h (1 Bft)
17.10.2017 14:00 20,7 C 61 % 1020,2 hPa 0,0 l/m S-SW 1,00 h 477 W/m 2,4 km/h (1 Bft)
17.10.2017 15:00 21,9 C 49 % 1019,4 hPa 0,0 l/m N 1,00 h 395 W/m 2,8 km/h (1 Bft)
17.10.2017 16:00 21,9 C 45 % 1018,8 hPa 0,0 l/m N 1,00 h 248 W/m 1,9 km/h (1 Bft)
17.10.2017 17:00 18,9 C 63 % 1018,5 hPa 0,0 l/m N 0,25 h 66 W/m 0,1 km/h (0 Bft)
17.10.2017 18:00 15,1 C 77 % 1018,2 hPa 0,0 l/m N 0,08 h 12 W/m 0,3 km/h (0 Bft)
17.10.2017 19:00 13,0 C 84 % 1018,4 hPa 0,0 l/m N 0,00 h 0 W/m 0,0 km/h (0 Bft)
17.10.2017 20:00 11,5 C 89 % 1018,3 hPa 0,0 l/m N 0,00 h 0 W/m 0,0 km/h (0 Bft)
17.10.2017 21:00 10,7 C 92 % 1018,1 hPa 0,0 l/m N 0,00 h 0 W/m 0,0 km/h (0 Bft)
17.10.2017 22:00 10,4 C 94 % 1018,2 hPa 0,0 l/m N 0,00 h 0 W/m 0,0 km/h (0 Bft)
17.10.2017 23:00 9,5 C 95 % 1017,9 hPa 0,0 l/m N 0,00 h 0 W/m 0,0 km/h (0 Bft)
18.10.2017 00:00 8,9 C 96 % 1017,6 hPa 0,0 l/m N 0,00 h 0 W/m 0,0 km/h (0 Bft)
18.10.2017 01:00 8,5 C 97 % 1017,4 hPa 0,0 l/m N 0,00 h 0 W/m 0,3 km/h (0 Bft)
18.10.2017 02:00 8,0 C 97 % 1017,4 hPa 0,0 l/m N 0,00 h 0 W/m 0,0 km/h (0 Bft)
18.10.2017 03:00 7,2 C 97 % 1016,9 hPa 0,0 l/m N 0,00 h 0 W/m 0,0 km/h (0 Bft)
18.10.2017 04:00 6,6 C 97 % 1016,5 hPa 0,0 l/m N 0,00 h 0 W/m 0,0 km/h (0 Bft)
18.10.2017 05:00 6,2 C 97 % 1016,1 hPa 0,0 l/m N 0,00 h 0 W/m 0,0 km/h (0 Bft)
18.10.2017 06:00 5,8 C 97 % 1015,8 hPa 0,0 l/m N 0,00 h 0 W/m 0,0 km/h (0 Bft)
18.10.2017 07:00 5,4 C 97 % 1015,7 hPa 0,0 l/m N 0,00 h 6 W/m 0,0 km/h (0 Bft)
18.10.2017 08:00 4,8 C 97 % 1015,8 hPa 0,0 l/m N 0,17 h 51 W/m 0,0 km/h (0 Bft)
18.10.2017 09:00 6,8 C 98 % 1015,8 hPa 0,0 l/m N 0,75 h 187 W/m 0,0 km/h (0 Bft)
18.10.2017 10:00 10,0 C 94 % 1015,6 hPa 0,0 l/m N 0,75 h 299 W/m 0,0 km/h (0 Bft)
18.10.2017 11:00 14,1 C 80 % 1015,3 hPa 0,0 l/m N 0,92 h 417 W/m 0,0 km/h (0 Bft)
18.10.2017 12:00 16,8 C 71 % 1014,8 hPa 0,0 l/m N 1,00 h 512 W/m 0,0 km/h (0 Bft)
18.10.2017 13:00 18,2 C 71 % 1014,3 hPa 0,0 l/m S-SW 1,00 h 517 W/m 6,2 km/h (2 Bft)
18.10.2017 14:00 19,5 C 66 % 1013,8 hPa 0,0 l/m S-SW 1,00 h 471 W/m 5,5 km/h (1 Bft)
18.10.2017 15:00 20,5 C 55 % 1013,1 hPa 0,0 l/m S 1,00 h 372 W/m 3,9 km/h (1 Bft)
18.10.2017 16:00 20,1 C 56 % 1013,0 hPa 0,0 l/m N 1,00 h 227 W/m 1,9 km/h (1 Bft)
18.10.2017 17:00 17,9 C 70 % 1013,0 hPa 0,0 l/m N 0,25 h 67 W/m 0,4 km/h (0 Bft)
18.10.2017 18:00 14,5 C 83 % 1013,2 hPa 0,0 l/m N 0,08 h 11 W/m 0,0 km/h (0 Bft)
18.10.2017 19:00 12,1 C 91 % 1013,6 hPa 0,0 l/m N 0,00 h 0 W/m 0,0 km/h (0 Bft)
18.10.2017 20:00 10,9 C 94 % 1013,8 hPa 0,0 l/m N 0,00 h 0 W/m 0,0 km/h (0 Bft)
18.10.2017 21:00 9,9 C 95 % 1014,1 hPa 0,0 l/m N 0,00 h 0 W/m 0,0 km/h (0 Bft)
18.10.2017 22:00 9,1 C 96 % 1014,3 hPa 0,0 l/m N 0,00 h 0 W/m 0,0 km/h (0 Bft)
18.10.2017 23:00 8,4 C 97 % 1014,3 hPa 0,0 l/m N 0,00 h 0 W/m 0,0 km/h (0 Bft)
19.10.2017 00:00 7,7 C 97 % 1014,2 hPa 0,0 l/m N 0,00 h 0 W/m 0,0 km/h (0 Bft)
19.10.2017 01:00 7,2 C 97 % 1014,2 hPa 0,0 l/m N 0,00 h 0 W/m 0,0 km/h (0 Bft)
19.10.2017 02:00 6,6 C 97 % 1014,0 hPa 0,0 l/m N 0,00 h 0 W/m 0,0 km/h (0 Bft)
19.10.2017 03:00 6,2 C 97 % 1013,8 hPa 0,0 l/m N 0,00 h 0 W/m 0,0 km/h (0 Bft)
19.10.2017 04:00 5,9 C 97 % 1013,4 hPa 0,0 l/m N 0,00 h 0 W/m 0,0 km/h (0 Bft)
19.10.2017 05:00 5,2 C 97 % 1013,4 hPa 0,0 l/m N 0,00 h 0 W/m 0,0 km/h (0 Bft)
19.10.2017 06:00 4,7 C 97 % 1013,4 hPa 0,2 l/m N 0,00 h 0 W/m 0,0 km/h (0 Bft)
19.10.2017 07:00 4,4 C 97 % 1013,5 hPa 0,0 l/m N 0,00 h 10 W/m 0,0 km/h (0 Bft)
19.10.2017 08:00 5,5 C 98 % 1013,7 hPa 0,0 l/m N 0,92 h 65 W/m 0,0 km/h (0 Bft)
19.10.2017 09:00 7,9 C 98 % 1014,1 hPa 0,0 l/m N 0,00 h 95 W/m 0,0 km/h (0 Bft)
19.10.2017 10:00 10,1 C 95 % 1014,2 hPa 0,0 l/m N 0,50 h 270 W/m 0,4 km/h (0 Bft)
19.10.2017 11:00 13,3 C 77 % 1014,2 hPa 0,0 l/m N 0,92 h 339 W/m 0,8 km/h (0 Bft)
19.10.2017 12:00 16,6 C 62 % 1014,1 hPa 0,0 l/m S 1,00 h 505 W/m 5,1 km/h (1 Bft)
19.10.2017 13:00 18,4 C 52 % 1013,5 hPa 0,0 l/m S 1,00 h 500 W/m 2,3 km/h (1 Bft)
19.10.2017 14:00 19,8 C 45 % 1012,6 hPa 0,0 l/m N 1,00 h 428 W/m 3,3 km/h (1 Bft)
19.10.2017 15:00 20,7 C 42 % 1012,0 hPa 0,0 l/m S 1,00 h 341 W/m 4,3 km/h (1 Bft)
19.10.2017 16:00 20,7 C 48 % 1011,6 hPa 0,0 l/m O-SO 1,00 h 212 W/m 7,5 km/h (2 Bft)
19.10.2017 17:00 19,2 C 55 % 1011,5 hPa 0,0 l/m O-SO 0,00 h 58 W/m 5,7 km/h (1 Bft)
19.10.2017 18:00 15,9 C 71 % 1011,6 hPa 0,0 l/m O 0,08 h 11 W/m 5,1 km/h (1 Bft)
19.10.2017 19:00 13,8 C 82 % 1011,9 hPa 0,0 l/m O 0,00 h 0 W/m 4,3 km/h (1 Bft)
19.10.2017 20:00 12,6 C 86 % 1011,9 hPa 0,0 l/m O 0,00 h 0 W/m 2,7 km/h (1 Bft)
19.10.2017 21:00 11,8 C 89 % 1011,7 hPa 0,0 l/m N 0,00 h 0 W/m 1,5 km/h (1 Bft)
19.10.2017 22:00 11,5 C 91 % 1011,8 hPa 0,0 l/m O 0,00 h 0 W/m 2,7 km/h (1 Bft)
19.10.2017 23:00 11,2 C 93 % 1011,6 hPa 0,0 l/m O 0,00 h 0 W/m 6,6 km/h (2 Bft)
20.10.2017 00:00 10,6 C 94 % 1011,6 hPa 0,0 l/m O-NO 0,00 h 0 W/m 2,4 km/h (1 Bft)
20.10.2017 01:00 9,7 C 95 % 1011,5 hPa 0,0 l/m O-NO 0,00 h 0 W/m 1,3 km/h (1 Bft)
20.10.2017 02:00 9,4 C 96 % 1012,0 hPa 0,0 l/m N 0,00 h 0 W/m 0,0 km/h (0 Bft)
20.10.2017 03:00 8,7 C 95 % 1012,4 hPa 0,0 l/m N 0,00 h 0 W/m 0,0 km/h (0 Bft)
20.10.2017 04:00 7,6 C 96 % 1012,8 hPa 0,0 l/m N 0,00 h 0 W/m 0,0 km/h (0 Bft)
20.10.2017 05:00 7,2 C 96 % 1012,8 hPa 0,0 l/m N 0,00 h 0 W/m 0,0 km/h (0 Bft)
20.10.2017 06:00 6,9 C 96 % 1012,9 hPa 0,0 l/m N 0,00 h 0 W/m 0,0 km/h (0 Bft)
20.10.2017 07:00 7,2 C 97 % 1013,2 hPa 0,0 l/m N 0,00 h 6 W/m 0,5 km/h (0 Bft)
20.10.2017 08:00 7,8 C 97 % 1013,4 hPa 0,0 l/m N 0,25 h 53 W/m 0,1 km/h (0 Bft)
20.10.2017 09:00 9,4 C 98 % 1014,1 hPa 0,0 l/m N 0,83 h 174 W/m 0,5 km/h (0 Bft)
20.10.2017 10:00 12,7 C 92 % 1014,3 hPa 0,0 l/m O 0,50 h 246 W/m 6,2 km/h (2 Bft)
20.10.2017 11:00 14,5 C 80 % 1014,5 hPa 0,0 l/m O 0,75 h 319 W/m 9,1 km/h (2 Bft)
20.10.2017 12:00 17,3 C 71 % 1014,4 hPa 0,0 l/m S-SW 1,00 h 488 W/m 11,4 km/h (2 Bft)
20.10.2017 13:00 19,0 C 66 % 1014,2 hPa 0,0 l/m S-SW 1,00 h 489 W/m 12,6 km/h (3 Bft)
20.10.2017 14:00 20,2 C 50 % 1013,9 hPa 0,0 l/m W-SW 1,00 h 433 W/m 18,1 km/h (3 Bft)
20.10.2017 15:00 19,6 C 51 % 1014,0 hPa 0,0 l/m SW 0,17 h 154 W/m 14,9 km/h (3 Bft)
20.10.2017 16:00 18,2 C 58 % 1014,2 hPa 0,0 l/m W-SW 0,00 h 71 W/m 10,7 km/h (2 Bft)
20.10.2017 17:00 16,8 C 66 % 1015,0 hPa 0,0 l/m W 0,00 h 19 W/m 17,6 km/h (3 Bft)
20.10.2017 18:00 14,8 C 79 % 1015,1 hPa 0,0 l/m SW 0,00 h 8 W/m 12,1 km/h (2 Bft)
20.10.2017 19:00 13,9 C 85 % 1015,7 hPa 0,0 l/m SW 0,00 h 0 W/m 8,3 km/h (2 Bft)
20.10.2017 20:00 12,9 C 89 % 1015,8 hPa 0,0 l/m SW 0,00 h 0 W/m 7,1 km/h (2 Bft)
20.10.2017 21:00 12,8 C 89 % 1015,6 hPa 0,0 l/m SW 0,00 h 0 W/m 9,1 km/h (2 Bft)
20.10.2017 22:00 12,9 C 89 % 1015,7 hPa 0,0 l/m SW 0,00 h 0 W/m 4,5 km/h (1 Bft)
20.10.2017 23:00 12,4 C 90 % 1015,6 hPa 0,0 l/m N 0,00 h 0 W/m 0,0 km/h (0 Bft)
21.10.2017 00:00 12,3 C 91 % 1015,4 hPa 0,0 l/m SW 0,00 h 0 W/m 3,7 km/h (1 Bft)
21.10.2017 01:00 12,8 C 89 % 1015,3 hPa 0,0 l/m SW 0,00 h 0 W/m 9,3 km/h (2 Bft)
21.10.2017 02:00 12,7 C 88 % 1015,4 hPa 0,0 l/m SW 0,00 h 0 W/m 8,2 km/h (2 Bft)
21.10.2017 03:00 12,8 C 86 % 1015,3 hPa 0,2 l/m SW 0,00 h 0 W/m 9,5 km/h (2 Bft)
21.10.2017 04:00 13,0 C 88 % 1015,2 hPa 0,2 l/m SW 0,00 h 0 W/m 11,7 km/h (2 Bft)
21.10.2017 05:00 12,5 C 91 % 1015,1 hPa 0,0 l/m SW 0,00 h 0 W/m 11,4 km/h (2 Bft)
21.10.2017 06:00 12,1 C 94 % 1015,1 hPa 0,0 l/m SW 0,00 h 0 W/m 9,2 km/h (2 Bft)
21.10.2017 07:00 11,8 C 95 % 1015,1 hPa 0,0 l/m SW 0,00 h 5 W/m 4,8 km/h (1 Bft)
21.10.2017 08:00 12,0 C 96 % 1015,3 hPa 0,0 l/m N 0,00 h 28 W/m 0,0 km/h (0 Bft)
21.10.2017 09:00 12,7 C 96 % 1015,7 hPa 0,0 l/m SW 0,67 h 152 W/m 1,3 km/h (1 Bft)
21.10.2017 10:00 14,6 C 91 % 1015,7 hPa 0,0 l/m SW 0,75 h 241 W/m 9,1 km/h (2 Bft)
21.10.2017 11:00 16,6 C 83 % 1015,7 hPa 0,0 l/m W-SW 0,92 h 400 W/m 20,4 km/h (4 Bft)
21.10.2017 12:00 17,8 C 75 % 1015,2 hPa 0,0 l/m W-SW 0,92 h 379 W/m 25,3 km/h (4 Bft)
21.10.2017 13:00 18,0 C 73 % 1014,8 hPa 0,0 l/m W-SW 0,58 h 292 W/m 20,1 km/h (4 Bft)
21.10.2017 14:00 17,5 C 76 % 1014,2 hPa 0,0 l/m SW 0,33 h 229 W/m 18,2 km/h (3 Bft)
21.10.2017 15:00 17,9 C 75 % 1013,9 hPa 0,0 l/m W-SW 0,33 h 225 W/m 15,7 km/h (3 Bft)
21.10.2017 16:00 17,5 C 76 % 1013,4 hPa 0,0 l/m SW 0,00 h 115 W/m 9,7 km/h (2 Bft)
21.10.2017 17:00 16,9 C 79 % 1013,1 hPa 0,0 l/m N 0,00 h 52 W/m 0,9 km/h (0 Bft)
21.10.2017 18:00 15,3 C 86 % 1012,8 hPa 0,0 l/m N 0,17 h 14 W/m 0,0 km/h (0 Bft)
21.10.2017 19:00 14,8 C 88 % 1012,8 hPa 0,0 l/m N 0,00 h 0 W/m 0,0 km/h (0 Bft)
21.10.2017 20:00 15,0 C 85 % 1012,7 hPa 0,0 l/m SW 0,00 h 0 W/m 7,0 km/h (2 Bft)
21.10.2017 21:00 14,5 C 85 % 1013,6 hPa 0,8 l/m W-NW 0,00 h 0 W/m 17,3 km/h (3 Bft)
21.10.2017 22:00 11,1 C 90 % 1014,7 hPa 0,0 l/m N-NW 0,00 h 0 W/m 19,1 km/h (3 Bft)
21.10.2017 23:00 10,6 C 92 % 1015,9 hPa 0,8 l/m SW 0,00 h 0 W/m 8,2 km/h (2 Bft)
22.10.2017 00:00 10,2 C 93 % 1017,1 hPa 3,6 l/m SW 0,00 h 0 W/m 12,5 km/h (3 Bft)
22.10.2017 01:00 9,4 C 95 % 1017,5 hPa 2,8 l/m SW 0,00 h 0 W/m 13,3 km/h (3 Bft)
22.10.2017 02:00 8,7 C 95 % 1017,3 hPa 0,6 l/m SW 0,00 h 0 W/m 18,2 km/h (3 Bft)
22.10.2017 03:00 8,1 C 96 % 1016,8 hPa 0,0 l/m SW 0,00 h 0 W/m 14,6 km/h (3 Bft)
22.10.2017 04:00 7,9 C 96 % 1016,2 hPa 0,0 l/m SW 0,00 h 0 W/m 12,6 km/h (3 Bft)
22.10.2017 05:00 7,9 C 97 % 1016,1 hPa 0,0 l/m SW 0,00 h 0 W/m 9,2 km/h (2 Bft)
22.10.2017 06:00 8,1 C 97 % 1015,7 hPa 0,0 l/m SW 0,00 h 0 W/m 13,7 km/h (3 Bft)
22.10.2017 07:00 8,1 C 96 % 1015,7 hPa 0,0 l/m W-SW 0,00 h 5 W/m 13,6 km/h (3 Bft)
22.10.2017 08:00 7,9 C 95 % 1015,8 hPa 0,0 l/m W-SW 0,00 h 44 W/m 13,3 km/h (3 Bft)
22.10.2017 09:00 8,7 C 88 % 1016,1 hPa 0,0 l/m W-SW 0,67 h 254 W/m 22,4 km/h (4 Bft)
22.10.2017 10:00 9,4 C 80 % 1016,4 hPa 0,0 l/m W-SW 0,67 h 254 W/m 22,5 km/h (4 Bft)
22.10.2017 11:00 9,5 C 78 % 1016,5 hPa 0,0 l/m W-SW 0,33 h 285 W/m 22,3 km/h (4 Bft)
22.10.2017 12:00 10,5 C 71 % 1016,0 hPa 0,0 l/m W 0,50 h 395 W/m 29,8 km/h (5 Bft)
22.10.2017 13:00 11,0 C 68 % 1015,3 hPa 0,0 l/m W 0,75 h 355 W/m 25,9 km/h (4 Bft)
22.10.2017 14:00 11,0 C 65 % 1014,8 hPa 0,0 l/m W-NW 0,33 h 249 W/m 25,2 km/h (4 Bft)
22.10.2017 15:00 11,1 C 68 % 1014,5 hPa 0,0 l/m W-SW 0,75 h 293 W/m 26,8 km/h (4 Bft)
22.10.2017 16:00 9,6 C 74 % 1014,8 hPa 0,0 l/m W-SW 0,75 h 191 W/m 23,7 km/h (4 Bft)
22.10.2017 17:00 8,5 C 81 % 1015,3 hPa 0,0 l/m W-SW 0,08 h 40 W/m 21,7 km/h (4 Bft)
22.10.2017 18:00 7,7 C 87 % 1015,6 hPa 0,0 l/m SW 0,00 h 9 W/m 13,3 km/h (3 Bft)
22.10.2017 19:00 7,4 C 88 % 1016,1 hPa 0,0 l/m W-SW 0,00 h 0 W/m 12,8 km/h (3 Bft)
22.10.2017 20:00 7,4 C 87 % 1016,7 hPa 0,0 l/m W-SW 0,00 h 0 W/m 14,5 km/h (3 Bft)
22.10.2017 21:00 7,3 C 85 % 1017,2 hPa 0,0 l/m W-SW 0,00 h 0 W/m 13,3 km/h (3 Bft)
22.10.2017 22:00 7,0 C 87 % 1017,5 hPa 0,0 l/m SW 0,00 h 0 W/m 11,7 km/h (2 Bft)
22.10.2017 23:00 6,8 C 90 % 1017,7 hPa 0,0 l/m W-SW 0,00 h 0 W/m 10,4 km/h (2 Bft)
Min-Datum _ 17.10.17 19.10.17 19.10.17 - - - - 16.10.17
_ Min-Zeit 07:45 15:10 17:40 - - - - 00:00
Minimum _ 4,3 C 39 % 1011,4 hPa - - - - 0,0 km/h (0 Bft)
Max-Datum _ 16.10.17 17.10.17 16.10.17 22.10.17 - 16.10.17 22.10.17 22.10.17
_ Max-Zeit 15:35 10:10 09:50 00:40 - 08:35 12:30 12:30
Maximum _ 23,2 C 100 % 1026,3 hPa 3,6 l/m - 0,08 h 666 W/m 40,2 km/h
W-SW (6 Bft)
Durchschnitt _ 11,8 C 85 % 1017,1 hPa #9,4 l/m SW #47:05 h 233 W/m 5,5 km/h (1 Bft)